Time;durP1;ratioP1;P1;durP2;ratioP2;P2;SDS_P1;SDS_P2;PMS_P1;PMS_P2;Temp;Humidity;BMP_temperature;BMP_pressure;BME280_temperature;BME280_humidity;BME280_pressure;Samples;Min_cycle;Max_cycle;Signal;HPM_P1;HPM_P2
2021/12/01 16:08:39;;;;;;;6.25;1.10;;;8.10;93.60;;;;;;6243620;22;20488;-91
2021/12/01 16:12:14;;;;;;;;;;;8.00;92.70;;;;;;6081759;23;20022;-91
2021/12/01 16:14:56;;;;;;;11.48;1.95;;;8.00;92.40;;;;;;6221199;23;19961;-92
2021/12/01 16:17:24;;;;;;;31.73;5.45;;;8.00;93.60;;;;;;6221258;23;20091;-91
2021/12/01 16:19:55;;;;;;;14.10;4.00;;;8.00;91.90;;;;;;6197269;23;20016;-92
2021/12/01 16:22:30;;;;;;;44.80;12.30;;;8.00;92.70;;;;;;6197375;23;20432;-90
2021/12/01 16:25:06;;;;;;;27.50;7.68;;;7.90;89.90;;;;;;6222110;23;20024;-92
2021/12/01 16:27:50;;;;;;;;;;;;;;;;;;;;;
2021/12/01 16:36:27;;;;;;;;;;;;;;;;;;;;;
2021/12/01 16:39:26;;;;;;;20.55;5.10;;;7.90;93.50;;;;;;6096349;23;20030;-90
2021/12/01 16:42:55;;;;;;;16.02;5.82;;;7.90;93.20;;;;;;6079302;23;20359;-93
2021/12/01 17:04:15;;;;;;;;;;;;;;;;;;;;;
2021/12/01 18:25:59;;;;;;;7.72;1.27;;;7.60;89.50;;;;;;6231295;22;20137;-92
2021/12/01 18:41:22;;;;;;;8.98;1.35;;;7.40;70.60;;;;;;6228680;22;20119;-90
2021/12/01 19:35:15;;;;;;;;;;;;;;;;;;;;;
2021/12/01 21:46:26;;;;;;;6.50;1.05;;;6.80;90.60;;;;;;6210226;22;20043;-90
2021/12/01 21:49:04;;;;;;;3.08;1.23;;;6.80;84.30;;;;;;6219940;23;20016;-91
2021/12/01 21:51:52;;;;;;;5.18;0.73;;;6.80;92.60;;;;;;6189488;23;20087;-92
2021/12/01 21:54:36;;;;;;;5.90;0.45;;;6.80;88.20;;;;;;6167915;23;20075;-93
2021/12/01 21:57:11;;;;;;;9.07;0.98;;;6.80;93.40;;;;;;6166144;23;20052;-92
2021/12/01 21:59:50;;;;;;;5.45;0.50;;;6.80;90.80;;;;;;6165154;23;20104;-92
2021/12/01 22:05:43;;;;;;;5.68;0.80;;;6.70;84.40;;;;;;6190012;23;20017;-92
2021/12/01 22:08:16;;;;;;;5.63;0.75;;;6.80;90.80;;;;;;6189555;23;20044;-92
2021/12/01 22:10:46;;;;;;;6.90;0.93;;;6.70;92.80;;;;;;6165622;23;20048;-93
2021/12/01 22:13:17;;;;;;;7.40;1.00;;;6.70;94.60;;;;;;6166169;23;20016;-92
2021/12/01 22:15:51;;;;;;;10.48;1.00;;;6.60;93.90;;;;;;6165426;23;20071;-93
2021/12/01 22:18:22;;;;;;;5.18;0.75;;;6.40;93.20;;;;;;6189462;23;20378;-93
2021/12/01 22:21:03;;;;;;;3.42;0.57;;;6.10;90.70;;;;;;6190344;23;20013;-92
2021/12/01 22:23:35;;;;;;;3.90;0.63;;;6.10;96.90;;;;;;6164971;23;20027;-92
2021/12/01 22:26:11;;;;;;;4.50;0.47;;;6.30;96.80;;;;;;6191286;23;20013;-92
2021/12/01 22:28:45;;;;;;;5.72;1.52;;;6.30;97.40;;;;;;6165068;23;20024;-92
2021/12/01 22:31:20;;;;;;;8.35;0.63;;;6.30;95.40;;;;;;6165660;23;20021;-92
2021/12/01 22:33:50;;;;;;;5.50;0.60;;;6.40;96.00;;;;;;6190491;23;20020;-92
2021/12/01 22:36:21;;;;;;;8.27;1.50;;;6.50;98.00;;;;;;6190835;23;20020;-92
2021/12/01 22:38:48;;;;;;;5.50;0.50;;;6.50;96.90;;;;;;6165009;23;20511;-92
2021/12/01 22:41:20;;;;;;;0.80;0.20;;;6.60;95.40;;;;;;6189721;23;20021;-93
2021/12/01 22:43:48;;;;;;;3.67;0.98;;;6.60;94.30;;;;;;6190138;23;20040;-93
2021/12/01 22:46:19;;;;;;;3.72;0.77;;;6.70;94.00;;;;;;6189467;23;20017;-92
2021/12/01 22:48:46;;;;;;;4.28;0.47;;;6.70;94.00;;;;;;6164780;23;20025;-92
2021/12/01 22:51:13;;;;;;;4.53;0.40;;;6.70;94.90;;;;;;6189697;23;20031;-92
2021/12/01 22:53:40;;;;;;;4.75;0.70;;;6.70;92.00;;;;;;6164953;23;20028;-92
2021/12/01 22:56:14;;;;;;;5.03;0.95;;;6.70;95.10;;;;;;6165544;23;20100;-92
2021/12/01 22:58:55;;;;;;;7.05;0.40;;;6.70;94.90;;;;;;6191434;23;20087;-92
2021/12/01 23:01:24;;;;;;;6.20;0.80;;;6.70;94.80;;;;;;6191938;23;20021;-92
2021/12/01 23:03:53;;;;;;;1.17;0.17;;;6.60;90.80;;;;;;6191951;23;20013;-92
2021/12/01 23:06:22;;;;;;;2.20;0.30;;;6.60;92.70;;;;;;6190906;23;20020;-92
2021/12/01 23:08:52;;;;;;;4.20;1.02;;;6.50;93.90;;;;;;6191046;23;20017;-92
2021/12/01 23:11:21;;;;;;;4.20;1.10;;;6.50;92.70;;;;;;6166366;23;20463;-92
2021/12/01 23:13:49;;;;;;;3.13;0.75;;;6.50;95.50;;;;;;6190917;23;20444;-91
2021/12/01 23:16:17;;;;;;;5.60;0.80;;;6.20;92.40;;;;;;6191499;23;20021;-92
2021/12/01 23:18:45;;;;;;;0.80;0.30;;;6.10;95.90;;;;;;6191579;23;20453;-92
2021/12/01 23:21:14;;;;;;;3.60;0.43;;;6.20;97.40;;;;;;6215152;23;20020;-92
2021/12/01 23:29:13;;;;;;;4.82;1.23;;;6.50;96.50;;;;;;6191081;23;20048;-92
2021/12/01 23:31:43;;;;;;;2.95;0.15;;;6.50;93.60;;;;;;6191300;23;20021;-92
2021/12/01 23:34:12;;;;;;;1.08;0.22;;;6.50;96.60;;;;;;6217266;23;20040;-92
2021/12/01 23:36:39;;;;;;;5.82;1.70;;;6.50;96.30;;;;;;6217434;23;20051;-91
2021/12/01 23:39:17;;;;;;;1.08;0.20;;;6.50;95.80;;;;;;6190537;23;20103;-92
2021/12/01 23:41:45;;;;;;;4.38;0.80;;;6.50;95.30;;;;;;6165898;23;20016;-91
2021/12/01 23:44:16;;;;;;;3.42;0.90;;;6.50;96.30;;;;;;6190812;23;20024;-92
2021/12/01 23:52:20;;;;;;;3.25;0.20;;;6.60;96.20;;;;;;6111202;23;20064;-91
2021/12/01 23:54:50;;;;;;;4.78;0.57;;;6.50;94.10;;;;;;6190782;23;20024;-92
2021/12/01 23:57:17;;;;;;;1.85;0.35;;;6.30;94.10;;;;;;6190991;23;20444;-92
2021/12/01 23:59:44;;;;;;;2.70;0.70;;;6.10;93.50;;;;;;6190396;23;20013;-91
